sensor_id;sensor_type;location;lat;lon;timestamp;P1;durP1;ratioP1;P2;durP2;ratioP2
77248;SDS011;66280;45.124;20.718;2023-06-22T00:00:22;17.47;;;12.43;;
77248;SDS011;66280;45.124;20.718;2023-06-22T00:10:22;12.27;;;9.97;;
77248;SDS011;66280;45.124;20.718;2023-06-22T00:20:23;16.37;;;10.83;;
77248;SDS011;66280;45.124;20.718;2023-06-22T00:30:23;12.82;;;10.27;;
77248;SDS011;66280;45.124;20.718;2023-06-22T00:40:24;12.07;;;9.47;;
77248;SDS011;66280;45.124;20.718;2023-06-22T00:50:26;15.05;;;10.10;;
77248;SDS011;66280;45.124;20.718;2023-06-22T01:00:27;11.63;;;10.43;;
77248;SDS011;66280;45.124;20.718;2023-06-22T01:20:59;15.48;;;9.45;;
77248;SDS011;66280;45.124;20.718;2023-06-22T01:31:01;9.93;;;8.70;;
77248;SDS011;66280;45.124;20.718;2023-06-22T01:41:02;16.60;;;12.67;;
77248;SDS011;66280;45.124;20.718;2023-06-22T01:51:03;14.43;;;10.38;;
77248;SDS011;66280;45.124;20.718;2023-06-22T02:01:13;15.03;;;12.17;;
77248;SDS011;66280;45.124;20.718;2023-06-22T02:11:23;15.33;;;10.70;;
77248;SDS011;66280;45.124;20.718;2023-06-22T02:21:26;15.47;;;11.40;;
77248;SDS011;66280;45.124;20.718;2023-06-22T02:31:26;16.97;;;11.87;;
77248;SDS011;66280;45.124;20.718;2023-06-22T02:41:27;22.43;;;11.87;;
77248;SDS011;66280;45.124;20.718;2023-06-22T03:01:33;12.60;;;10.33;;
77248;SDS011;66280;45.124;20.718;2023-06-22T03:11:34;14.20;;;11.60;;
77248;SDS011;66280;45.124;20.718;2023-06-22T03:21:35;13.55;;;9.82;;
77248;SDS011;66280;45.124;20.718;2023-06-22T03:31:36;16.67;;;11.10;;
77248;SDS011;66280;45.124;20.718;2023-06-22T03:41:37;19.50;;;11.63;;
77248;SDS011;66280;45.124;20.718;2023-06-22T03:51:37;13.03;;;11.57;;
77248;SDS011;66280;45.124;20.718;2023-06-22T04:01:38;16.97;;;11.87;;
77248;SDS011;66280;45.124;20.718;2023-06-22T04:11:39;13.33;;;11.50;;
77248;SDS011;66280;45.124;20.718;2023-06-22T04:21:39;14.20;;;11.23;;
77248;SDS011;66280;45.124;20.718;2023-06-22T04:31:40;16.00;;;11.20;;
77248;SDS011;66280;45.124;20.718;2023-06-22T04:41:41;16.07;;;12.10;;
77248;SDS011;66280;45.124;20.718;2023-06-22T04:51:42;15.83;;;12.40;;
77248;SDS011;66280;45.124;20.718;2023-06-22T05:01:43;15.38;;;11.02;;
77248;SDS011;66280;45.124;20.718;2023-06-22T05:11:44;13.87;;;11.77;;
77248;SDS011;66280;45.124;20.718;2023-06-22T05:21:45;13.20;;;10.90;;
77248;SDS011;66280;45.124;20.718;2023-06-22T05:31:45;16.30;;;11.83;;
77248;SDS011;66280;45.124;20.718;2023-06-22T05:41:46;17.30;;;12.63;;
77248;SDS011;66280;45.124;20.718;2023-06-22T05:51:47;17.13;;;11.30;;
77248;SDS011;66280;45.124;20.718;2023-06-22T06:01:48;18.03;;;11.70;;
77248;SDS011;66280;45.124;20.718;2023-06-22T06:11:48;17.50;;;11.70;;
77248;SDS011;66280;45.124;20.718;2023-06-22T06:21:49;24.33;;;13.07;;
77248;SDS011;66280;45.124;20.718;2023-06-22T06:31:49;15.73;;;12.93;;
77248;SDS011;66280;45.124;20.718;2023-06-22T06:41:50;14.30;;;12.90;;
77248;SDS011;66280;45.124;20.718;2023-06-22T06:51:51;17.67;;;11.93;;
77248;SDS011;66280;45.124;20.718;2023-06-22T07:01:52;14.50;;;12.90;;
77248;SDS011;66280;45.124;20.718;2023-06-22T07:11:53;12.53;;;11.43;;
77248;SDS011;66280;45.124;20.718;2023-06-22T07:21:54;11.00;;;10.10;;
77248;SDS011;66280;45.124;20.718;2023-06-22T07:31:55;12.53;;;11.50;;
77248;SDS011;66280;45.124;20.718;2023-06-22T07:41:55;15.85;;;11.25;;
77248;SDS011;66280;45.124;20.718;2023-06-22T07:51:56;13.20;;;12.10;;
77248;SDS011;66280;45.124;20.718;2023-06-22T08:01:57;13.67;;;12.47;;
77248;SDS011;66280;45.124;20.718;2023-06-22T08:11:58;14.37;;;12.97;;
77248;SDS011;66280;45.124;20.718;2023-06-22T08:21:59;15.33;;;12.47;;
77248;SDS011;66280;45.124;20.718;2023-06-22T08:31:59;13.57;;;12.38;;
77248;SDS011;66280;45.124;20.718;2023-06-22T08:42:00;12.23;;;11.23;;
77248;SDS011;66280;45.124;20.718;2023-06-22T08:52:01;12.37;;;11.37;;
77248;SDS011;66280;45.124;20.718;2023-06-22T09:02:02;11.00;;;9.97;;
77248;SDS011;66280;45.124;20.718;2023-06-22T09:12:02;11.73;;;10.53;;
77248;SDS011;66280;45.124;20.718;2023-06-22T09:22:03;11.05;;;10.13;;
77248;SDS011;66280;45.124;20.718;2023-06-22T09:32:05;11.67;;;10.67;;
77248;SDS011;66280;45.124;20.718;2023-06-22T09:42:06;11.97;;;10.90;;
77248;SDS011;66280;45.124;20.718;2023-06-22T09:52:06;13.87;;;10.30;;
77248;SDS011;66280;45.124;20.718;2023-06-22T10:02:07;13.32;;;9.25;;
77248;SDS011;66280;45.124;20.718;2023-06-22T10:12:08;11.20;;;10.10;;
77248;SDS011;66280;45.124;20.718;2023-06-22T10:22:09;13.77;;;10.33;;
77248;SDS011;66280;45.124;20.718;2023-06-22T10:32:10;17.13;;;10.27;;
77248;SDS011;66280;45.124;20.718;2023-06-22T10:42:11;18.97;;;10.70;;
77248;SDS011;66280;45.124;20.718;2023-06-22T10:52:12;14.05;;;11.85;;
77248;SDS011;66280;45.124;20.718;2023-06-22T11:02:13;12.00;;;10.87;;
77248;SDS011;66280;45.124;20.718;2023-06-22T11:12:14;12.70;;;10.17;;
77248;SDS011;66280;45.124;20.718;2023-06-22T11:22:15;11.25;;;10.07;;
77248;SDS011;66280;45.124;20.718;2023-06-22T11:32:15;10.77;;;9.77;;
77248;SDS011;66280;45.124;20.718;2023-06-22T11:42:16;12.52;;;10.52;;
77248;SDS011;66280;45.124;20.718;2023-06-22T11:52:16;17.47;;;10.37;;
77248;SDS011;66280;45.124;20.718;2023-06-22T12:02:17;14.13;;;10.90;;
77248;SDS011;66280;45.124;20.718;2023-06-22T12:12:18;12.57;;;10.30;;
77248;SDS011;66280;45.124;20.718;2023-06-22T12:22:19;12.53;;;10.30;;
77248;SDS011;66280;45.124;20.718;2023-06-22T12:32:19;15.00;;;10.97;;
77248;SDS011;66280;45.124;20.718;2023-06-22T12:42:20;11.23;;;10.23;;
77248;SDS011;66280;45.124;20.718;2023-06-22T12:52:21;14.40;;;10.67;;
77248;SDS011;66280;45.124;20.718;2023-06-22T13:02:21;12.67;;;10.20;;
77248;SDS011;66280;45.124;20.718;2023-06-22T13:12:22;12.43;;;11.23;;
77248;SDS011;66280;45.124;20.718;2023-06-22T13:22:26;10.87;;;9.77;;
77248;SDS011;66280;45.124;20.718;2023-06-22T13:32:28;11.52;;;9.18;;
77248;SDS011;66280;45.124;20.718;2023-06-22T13:42:29;9.97;;;8.97;;
77248;SDS011;66280;45.124;20.718;2023-06-22T13:52:30;12.83;;;9.60;;
77248;SDS011;66280;45.124;20.718;2023-06-22T14:02:30;11.45;;;10.23;;
77248;SDS011;66280;45.124;20.718;2023-06-22T14:12:31;13.43;;;9.97;;
77248;SDS011;66280;45.124;20.718;2023-06-22T14:22:32;11.93;;;9.50;;
77248;SDS011;66280;45.124;20.718;2023-06-22T14:32:32;13.93;;;9.97;;
77248;SDS011;66280;45.124;20.718;2023-06-22T14:42:33;10.93;;;10.02;;
77248;SDS011;66280;45.124;20.718;2023-06-22T14:52:34;12.52;;;9.60;;
77248;SDS011;66280;45.124;20.718;2023-06-22T15:02:34;13.50;;;8.85;;
77248;SDS011;66280;45.124;20.718;2023-06-22T15:12:35;10.05;;;9.05;;
77248;SDS011;66280;45.124;20.718;2023-06-22T15:22:36;12.23;;;9.50;;
77248;SDS011;66280;45.124;20.718;2023-06-22T15:32:37;13.50;;;9.03;;
77248;SDS011;66280;45.124;20.718;2023-06-22T15:42:37;9.63;;;8.40;;
77248;SDS011;66280;45.124;20.718;2023-06-22T15:52:39;10.98;;;9.38;;
77248;SDS011;66280;45.124;20.718;2023-06-22T16:02:40;9.47;;;8.63;;
77248;SDS011;66280;45.124;20.718;2023-06-22T16:12:41;13.20;;;9.37;;
77248;SDS011;66280;45.124;20.718;2023-06-22T16:22:43;13.25;;;9.73;;
77248;SDS011;66280;45.124;20.718;2023-06-22T16:32:50;14.03;;;9.00;;
77248;SDS011;66280;45.124;20.718;2023-06-22T16:42:51;10.97;;;9.60;;
77248;SDS011;66280;45.124;20.718;2023-06-22T16:52:52;11.88;;;9.77;;
77248;SDS011;66280;45.124;20.718;2023-06-22T17:02:53;15.73;;;10.20;;
77248;SDS011;66280;45.124;20.718;2023-06-22T17:12:54;13.83;;;9.10;;
77248;SDS011;66280;45.124;20.718;2023-06-22T17:22:55;16.17;;;8.40;;
77248;SDS011;66280;45.124;20.718;2023-06-22T17:32:56;16.77;;;9.33;;
77248;SDS011;66280;45.124;20.718;2023-06-22T17:43:02;18.30;;;8.15;;
77248;SDS011;66280;45.124;20.718;2023-06-22T17:53:03;16.77;;;9.60;;
77248;SDS011;66280;45.124;20.718;2023-06-22T18:03:09;15.53;;;10.20;;
77248;SDS011;66280;45.124;20.718;2023-06-22T18:13:11;28.07;;;9.23;;
77248;SDS011;66280;45.124;20.718;2023-06-22T18:23:13;13.10;;;9.23;;
77248;SDS011;66280;45.124;20.718;2023-06-22T18:33:14;16.65;;;9.93;;
77248;SDS011;66280;45.124;20.718;2023-06-22T18:43:20;20.20;;;9.43;;
77248;SDS011;66280;45.124;20.718;2023-06-22T18:53:27;23.03;;;9.50;;
77248;SDS011;66280;45.124;20.718;2023-06-22T19:03:28;21.67;;;9.20;;
77248;SDS011;66280;45.124;20.718;2023-06-22T19:13:29;18.60;;;9.33;;
77248;SDS011;66280;45.124;20.718;2023-06-22T19:23:31;20.20;;;10.13;;
77248;SDS011;66280;45.124;20.718;2023-06-22T19:33:33;21.73;;;9.63;;
77248;SDS011;66280;45.124;20.718;2023-06-22T19:43:33;14.60;;;8.80;;
77248;SDS011;66280;45.124;20.718;2023-06-22T19:53:39;12.15;;;9.00;;
77248;SDS011;66280;45.124;20.718;2023-06-22T20:03:40;10.93;;;8.67;;
77248;SDS011;66280;45.124;20.718;2023-06-22T20:13:51;13.53;;;9.43;;
77248;SDS011;66280;45.124;20.718;2023-06-22T20:23:52;11.53;;;8.67;;
77248;SDS011;66280;45.124;20.718;2023-06-22T20:34:02;14.27;;;9.57;;
77248;SDS011;66280;45.124;20.718;2023-06-22T20:44:03;10.00;;;8.70;;
77248;SDS011;66280;45.124;20.718;2023-06-22T20:54:04;11.97;;;8.03;;
77248;SDS011;66280;45.124;20.718;2023-06-22T21:04:05;10.13;;;8.30;;
77248;SDS011;66280;45.124;20.718;2023-06-22T21:14:05;12.05;;;9.40;;
77248;SDS011;66280;45.124;20.718;2023-06-22T21:24:06;11.60;;;8.70;;
77248;SDS011;66280;45.124;20.718;2023-06-22T21:34:06;12.13;;;9.17;;
77248;SDS011;66280;45.124;20.718;2023-06-22T21:44:07;13.52;;;10.52;;
77248;SDS011;66280;45.124;20.718;2023-06-22T21:54:10;15.65;;;9.88;;
77248;SDS011;66280;45.124;20.718;2023-06-22T22:04:11;10.97;;;9.27;;
77248;SDS011;66280;45.124;20.718;2023-06-22T22:14:11;15.23;;;10.10;;
77248;SDS011;66280;45.124;20.718;2023-06-22T22:24:12;15.70;;;9.47;;
77248;SDS011;66280;45.124;20.718;2023-06-22T22:34:13;14.32;;;10.02;;
77248;SDS011;66280;45.124;20.718;2023-06-22T22:44:13;12.82;;;10.20;;
77248;SDS011;66280;45.124;20.718;2023-06-22T22:54:14;13.93;;;10.30;;
77248;SDS011;66280;45.124;20.718;2023-06-22T23:04:15;11.90;;;10.40;;
77248;SDS011;66280;45.124;20.718;2023-06-22T23:14:15;13.93;;;9.90;;
77248;SDS011;66280;45.124;20.718;2023-06-22T23:24:16;11.30;;;9.88;;
77248;SDS011;66280;45.124;20.718;2023-06-22T23:34:17;13.17;;;9.60;;
77248;SDS011;66280;45.124;20.718;2023-06-22T23:44:17;15.90;;;10.33;;
77248;SDS011;66280;45.124;20.718;2023-06-22T23:54:18;14.67;;;10.37;;
